createdAt,value
2023-04-03T00:01:23.492Z,51.04
2023-04-03T00:03:52.907Z,50.97
2023-04-03T00:06:21.678Z,50.62
2023-04-03T00:08:51.804Z,50.70
2023-04-03T00:11:21.012Z,50.80
2023-04-03T00:13:49.690Z,51.08
2023-04-03T00:16:18.390Z,51.17
2023-04-03T00:18:46.853Z,51.01
2023-04-03T00:21:15.840Z,51.01
2023-04-03T00:23:44.319Z,51.15
2023-04-03T00:26:14.239Z,51.17
2023-04-03T00:28:42.938Z,51.15
2023-04-03T00:31:11.669Z,51.07
2023-04-03T00:33:40.099Z,50.84
2023-04-03T00:36:10.228Z,50.97
2023-04-03T00:38:39.092Z,50.94
2023-04-03T00:41:07.889Z,51.11
2023-04-03T00:43:37.798Z,50.87
2023-04-03T00:46:06.735Z,50.96
2023-04-03T00:48:37.832Z,51.22
2023-04-03T00:51:06.927Z,51.17
2023-04-03T00:53:38.071Z,51.07
2023-04-03T00:56:10.061Z,51.17
2023-04-03T00:58:42.721Z,51.25
2023-04-03T01:01:13.665Z,51.29
2023-04-03T01:03:42.943Z,51.33
2023-04-03T01:06:11.642Z,51.46
2023-04-03T01:08:40.627Z,51.38
2023-04-03T01:11:10.030Z,51.61
2023-04-03T01:13:41.787Z,51.24
2023-04-03T01:16:10.609Z,51.23
2023-04-03T01:18:40.606Z,51.39
2023-04-03T01:21:30.889Z,51.21
2023-04-03T01:24:16.881Z,51.28
2023-04-03T01:26:45.993Z,51.52
2023-04-03T01:29:17.112Z,51.70
2023-04-03T01:31:54.195Z,51.71
2023-04-03T01:34:22.884Z,51.61
2023-04-03T01:36:53.202Z,51.39
2023-04-03T01:39:23.222Z,51.27
2023-04-03T01:41:52.310Z,51.44
2023-04-03T01:44:33.939Z,51.16
2023-04-03T01:47:04.126Z,51.23
2023-04-03T01:49:33.490Z,51.36
2023-04-03T01:52:02.725Z,51.46
2023-04-03T01:54:31.233Z,51.15
2023-04-03T01:57:01.149Z,51.43
2023-04-03T01:59:30.450Z,51.16
2023-04-03T02:01:59.614Z,51.13
2023-04-03T02:04:29.575Z,51.23
2023-04-03T02:07:02.622Z,51.06
2023-04-03T02:09:32.638Z,51.41
2023-04-03T02:12:01.528Z,51.39
2023-04-03T02:14:30.005Z,51.32
2023-04-03T02:16:58.561Z,51.40
2023-04-03T02:19:27.668Z,51.24
2023-04-03T02:21:57.593Z,51.62
2023-04-03T02:24:26.120Z,51.34
2023-04-03T02:26:54.557Z,51.12
2023-04-03T02:29:23.149Z,51.35
2023-04-03T02:31:52.236Z,51.59
2023-04-03T02:34:22.048Z,51.17
2023-04-03T02:36:51.654Z,51.24
2023-04-03T02:39:22.895Z,51.25
2023-04-03T02:41:51.788Z,51.28
2023-04-03T02:44:25.594Z,51.20
2023-04-03T02:46:55.447Z,51.43
2023-04-03T02:49:23.988Z,51.54
2023-04-03T02:51:52.578Z,51.62
2023-04-03T02:54:24.346Z,51.62
2023-04-03T02:56:56.416Z,51.65
2023-04-03T02:59:24.872Z,51.61
2023-04-03T03:01:53.846Z,51.34
2023-04-03T03:04:22.659Z,51.51
2023-04-03T03:06:51.873Z,51.47
2023-04-03T03:09:20.652Z,51.54
2023-04-03T03:11:50.552Z,51.55
2023-04-03T03:14:19.136Z,51.68
2023-04-03T03:16:47.720Z,51.71
2023-04-03T03:19:17.430Z,51.36
2023-04-03T03:21:45.908Z,51.77
2023-04-03T03:24:14.296Z,51.65
2023-04-03T03:26:42.872Z,51.83
2023-04-03T03:29:12.811Z,51.64
2023-04-03T03:31:42.626Z,51.50
2023-04-03T03:34:12.919Z,51.79
2023-04-03T03:36:41.911Z,51.47
2023-04-03T03:39:10.914Z,51.61
2023-04-03T03:41:39.700Z,51.77
2023-04-03T03:44:08.797Z,51.50
2023-04-03T03:46:38.931Z,51.46
2023-04-03T03:49:07.801Z,51.53
2023-04-03T03:51:37.417Z,51.52
2023-04-03T03:54:06.399Z,51.40
2023-04-03T03:56:35.706Z,51.77
2023-04-03T03:59:04.192Z,51.60
2023-04-03T04:01:33.889Z,51.57
2023-04-03T04:04:04.436Z,51.38
2023-04-03T04:06:34.131Z,51.46
2023-04-03T04:09:06.410Z,51.35
2023-04-03T04:11:35.595Z,51.51
2023-04-03T04:14:04.687Z,51.39
2023-04-03T04:16:33.499Z,51.36
2023-04-03T04:19:09.112Z,51.39
2023-04-03T04:21:39.471Z,51.35
2023-04-03T04:24:09.362Z,51.55
2023-04-03T04:26:39.074Z,51.33
2023-04-03T04:29:09.090Z,51.48
2023-04-03T04:31:37.872Z,51.49
2023-04-03T04:34:06.394Z,51.36
2023-04-03T04:36:38.038Z,51.69
2023-04-03T04:39:07.004Z,51.55
2023-04-03T04:41:36.609Z,51.71
2023-04-03T04:44:06.550Z,51.72
2023-04-03T04:46:35.687Z,51.78
2023-04-03T04:49:04.515Z,51.77
2023-04-03T04:51:38.149Z,51.80
2023-04-03T04:54:21.166Z,51.72
2023-04-03T04:56:51.065Z,51.98
2023-04-03T04:59:21.503Z,51.99
2023-04-03T05:01:54.542Z,52.00
2023-04-03T05:04:34.018Z,52.16
2023-04-03T05:10:11.312Z,52.35
2023-04-03T05:16:05.683Z,52.77
2023-04-03T05:18:41.485Z,52.46
2023-04-03T05:24:29.534Z,52.66
2023-04-03T05:27:01.910Z,52.72
2023-04-03T05:29:45.370Z,52.75
2023-04-03T05:32:19.041Z,52.83
2023-04-03T05:34:51.092Z,52.80
2023-04-03T05:37:21.528Z,52.83
2023-04-03T05:39:51.428Z,53.13
2023-04-03T05:42:21.767Z,53.14
2023-04-03T05:44:51.265Z,53.42
2023-04-03T05:47:19.955Z,53.29
2023-04-03T05:49:48.637Z,53.36
2023-04-03T05:52:22.845Z,53.52
2023-04-03T05:54:52.258Z,53.80
2023-04-03T05:57:27.736Z,53.70
2023-04-03T05:59:56.680Z,53.83
2023-04-03T06:02:26.239Z,53.91
2023-04-03T06:04:55.294Z,53.76
2023-04-03T06:07:24.379Z,53.90
2023-04-03T06:09:53.577Z,54.24
2023-04-03T06:12:22.275Z,54.13
2023-04-03T06:14:52.293Z,54.42
2023-04-03T06:17:23.305Z,54.44
2023-04-03T06:19:52.004Z,54.20
2023-04-03T06:22:21.081Z,54.15
2023-04-03T06:24:49.476Z,54.34
2023-04-03T06:27:17.967Z,54.46
2023-04-03T06:29:46.957Z,54.01
2023-04-03T06:32:16.866Z,54.31
2023-04-03T06:34:45.353Z,54.11
2023-04-03T06:37:15.264Z,54.33
2023-04-03T06:39:43.845Z,54.25
2023-04-03T06:42:12.428Z,54.47
2023-04-03T06:44:49.576Z,54.38
2023-04-03T06:47:19.861Z,54.18
2023-04-03T06:49:48.907Z,54.10
2023-04-03T06:52:17.513Z,54.09
2023-04-03T06:54:46.102Z,54.38
2023-04-03T06:57:14.987Z,54.23
2023-04-03T06:59:46.739Z,54.12
2023-04-03T07:02:15.801Z,54.18
2023-04-03T07:04:46.929Z,54.56
2023-04-03T07:07:16.115Z,54.23
2023-04-03T07:09:45.283Z,54.49
2023-04-03T07:12:14.060Z,54.33
2023-04-03T07:14:42.964Z,54.23
2023-04-03T07:17:11.445Z,53.87
2023-04-03T07:19:40.222Z,54.13
2023-04-03T07:22:10.440Z,53.78
2023-04-03T07:24:39.338Z,53.50
2023-04-03T07:27:09.461Z,53.63
2023-04-03T07:29:39.271Z,53.75
2023-04-03T07:32:08.195Z,53.52
2023-04-03T07:34:37.651Z,53.46
2023-04-03T07:37:06.347Z,53.25
2023-04-03T07:39:36.461Z,53.17
2023-04-03T07:42:05.063Z,52.88
2023-04-03T07:44:33.676Z,52.85
2023-04-03T07:47:05.892Z,52.75
2023-04-03T07:49:39.084Z,52.47
2023-04-03T07:52:10.182Z,51.97
2023-04-03T07:54:41.070Z,52.28
2023-04-03T07:57:09.980Z,52.19
2023-04-03T07:59:38.854Z,51.90
2023-04-03T08:02:07.906Z,51.69
2023-04-03T08:04:36.681Z,51.83
2023-04-03T08:07:05.206Z,51.45
2023-04-03T08:09:33.788Z,51.77
2023-04-03T08:12:03.905Z,51.41
2023-04-03T08:14:35.579Z,51.08
2023-04-03T08:17:07.084Z,50.91
2023-04-03T08:19:36.028Z,50.93
2023-04-03T08:22:06.036Z,50.62
2023-04-03T08:24:34.728Z,50.50
2023-04-03T08:27:06.893Z,50.56
2023-04-03T08:29:35.673Z,50.56
2023-04-03T08:32:05.590Z,50.21
2023-04-03T08:34:36.003Z,50.55
2023-04-03T08:37:04.383Z,50.67
2023-04-03T08:39:33.993Z,50.88
2023-04-03T08:42:03.288Z,50.72
2023-04-03T08:44:38.852Z,50.52
2023-04-03T08:47:14.286Z,51.01
2023-04-03T08:49:48.308Z,50.76
2023-04-03T08:52:19.751Z,50.58
2023-04-03T08:54:52.429Z,50.85
2023-04-03T08:57:27.320Z,50.44
2023-04-03T08:59:57.884Z,50.62
2023-04-03T09:02:28.775Z,50.28
2023-04-03T09:04:57.984Z,50.40
2023-04-03T09:07:34.556Z,50.21
2023-04-03T09:10:04.277Z,50.42
2023-04-03T09:12:36.875Z,49.70
2023-04-03T09:15:12.257Z,49.76
2023-04-03T09:17:44.664Z,49.46
2023-04-03T09:20:21.316Z,49.31
2023-04-03T09:22:53.001Z,48.61
2023-04-03T09:25:23.849Z,48.93
2023-04-03T09:27:53.069Z,48.56
2023-04-03T09:30:24.583Z,48.13
2023-04-03T09:32:54.180Z,48.07
2023-04-03T09:35:32.791Z,47.83
2023-04-03T09:38:23.339Z,47.08
2023-04-03T09:40:54.677Z,47.07
2023-04-03T09:43:28.587Z,46.99
2023-04-03T09:45:59.210Z,46.80
2023-04-03T09:48:29.536Z,46.09
2023-04-03T09:51:02.812Z,46.33
2023-04-03T09:53:37.991Z,46.17
2023-04-03T09:56:23.044Z,44.89
2023-04-03T09:58:52.232Z,44.81
2023-04-03T10:01:31.020Z,44.55
2023-04-03T10:04:11.899Z,44.54
2023-04-03T10:06:44.608Z,44.31
2023-04-03T10:09:20.770Z,43.85
2023-04-03T10:12:05.782Z,43.68
2023-04-03T10:14:35.669Z,43.00
2023-04-03T10:17:13.653Z,42.86
2023-04-03T10:19:43.873Z,41.71
2023-04-03T10:22:18.813Z,40.41
2023-04-03T10:24:52.814Z,40.87
2023-04-03T10:27:25.705Z,40.25
2023-04-03T10:29:57.063Z,39.90
2023-04-03T10:32:53.623Z,39.93
2023-04-03T10:35:31.513Z,39.22
2023-04-03T10:38:05.716Z,38.28
2023-04-03T10:40:37.613Z,37.41
2023-04-03T10:43:11.261Z,37.36
2023-04-03T10:45:54.046Z,37.43
2023-04-03T10:48:31.273Z,37.10
2023-04-03T10:51:03.124Z,37.42
2023-04-03T10:53:34.167Z,37.58
2023-04-03T10:56:06.025Z,36.78
2023-04-03T10:58:35.752Z,37.06
2023-04-03T11:01:09.855Z,36.37
2023-04-03T11:03:42.223Z,35.73
2023-04-03T11:06:12.032Z,36.40
2023-04-03T11:08:42.227Z,35.72
2023-04-03T11:11:12.444Z,37.13
2023-04-03T11:13:43.737Z,36.31
2023-04-03T11:16:12.134Z,35.53
2023-04-03T11:18:43.960Z,35.58
2023-04-03T11:21:15.311Z,35.81
2023-04-03T11:23:50.097Z,36.07
2023-04-03T11:26:19.934Z,35.15
2023-04-03T11:28:48.439Z,34.33
2023-04-03T11:31:27.525Z,35.07
2023-04-03T11:34:03.514Z,36.10
2023-04-03T11:36:34.564Z,36.22
2023-04-03T11:39:10.507Z,35.92
2023-04-03T11:41:39.012Z,35.56
2023-04-03T11:44:08.501Z,36.17
2023-04-03T11:46:57.890Z,35.60
2023-04-03T11:50:01.014Z,35.09
2023-04-03T11:53:03.976Z,34.61
2023-04-03T11:55:56.928Z,34.69
2023-04-03T11:58:35.929Z,33.86
2023-04-03T12:01:10.883Z,34.66
2023-04-03T12:04:02.425Z,34.10
2023-04-03T12:07:07.340Z,33.14
2023-04-03T12:10:01.627Z,32.79
2023-04-03T12:12:38.483Z,32.17
2023-04-03T12:15:25.709Z,31.87
2023-04-03T12:17:54.362Z,32.25
2023-04-03T12:20:56.564Z,32.64
2023-04-03T12:23:31.691Z,32.85
2023-04-03T12:26:06.423Z,32.71
2023-04-03T12:28:41.569Z,32.25
2023-04-03T12:31:10.927Z,31.25
2023-04-03T12:33:46.913Z,31.65
2023-04-03T12:36:16.275Z,31.85
2023-04-03T12:39:12.252Z,30.95
2023-04-03T12:41:41.426Z,30.98
2023-04-03T12:44:27.235Z,31.27
2023-04-03T12:46:55.933Z,31.55
2023-04-03T12:49:36.267Z,31.42
2023-04-03T12:52:07.101Z,30.39
2023-04-03T12:54:37.938Z,29.70
2023-04-03T12:57:13.738Z,28.60
2023-04-03T12:59:42.585Z,28.43
2023-04-03T13:02:24.395Z,28.54
2023-04-03T13:04:53.279Z,28.64
2023-04-03T13:07:23.816Z,28.65
2023-04-03T13:10:04.687Z,27.89
2023-04-03T13:12:33.064Z,28.49
2023-04-03T13:15:05.315Z,28.70
2023-04-03T13:17:35.196Z,28.79
2023-04-03T13:20:17.575Z,28.76
2023-04-03T13:22:52.984Z,28.94
2023-04-03T13:25:23.219Z,28.98
2023-04-03T13:27:53.863Z,28.72
2023-04-03T13:30:28.769Z,28.61
2023-04-03T13:32:57.733Z,28.02
2023-04-03T13:35:32.699Z,28.22
2023-04-03T13:38:02.304Z,28.26
2023-04-03T13:40:41.471Z,28.29
2023-04-03T13:43:20.976Z,28.38
2023-04-03T13:46:06.364Z,28.32
2023-04-03T13:48:42.372Z,28.69
2023-04-03T13:51:21.021Z,28.91
2023-04-03T13:53:51.109Z,28.10
2023-04-03T13:56:24.209Z,27.77
2023-04-03T13:59:04.578Z,27.74
2023-04-03T14:01:40.383Z,27.51
2023-04-03T14:04:14.737Z,27.44
2023-04-03T14:06:43.332Z,27.79
2023-04-03T14:09:11.930Z,27.31
2023-04-03T14:11:42.047Z,27.54
2023-04-03T14:14:15.652Z,27.38
2023-04-03T14:16:46.152Z,28.05
2023-04-03T14:19:20.077Z,27.57
2023-04-03T14:21:48.669Z,27.91
2023-04-03T14:24:17.680Z,27.53
2023-04-03T14:26:47.770Z,27.46
2023-04-03T14:29:16.450Z,27.13
2023-04-03T14:31:45.591Z,27.04
2023-04-03T14:34:14.239Z,26.87
2023-04-03T14:36:43.990Z,26.63
2023-04-03T14:39:13.676Z,26.72
2023-04-03T14:41:42.439Z,26.43
2023-04-03T14:44:12.563Z,26.76
2023-04-03T14:46:55.705Z,26.15
2023-04-03T14:49:27.240Z,26.53
2023-04-03T14:51:55.764Z,26.55
2023-04-03T14:54:26.764Z,26.64
2023-04-03T14:56:56.029Z,27.01
2023-04-03T14:59:25.877Z,27.18
2023-04-03T15:01:54.266Z,27.17
2023-04-03T15:04:22.926Z,26.78
2023-04-03T15:06:52.580Z,27.36
2023-04-03T15:09:23.291Z,27.31
2023-04-03T15:11:51.946Z,27.66
2023-04-03T15:14:30.022Z,27.44
2023-04-03T15:17:08.173Z,27.04
2023-04-03T15:19:39.119Z,26.80
2023-04-03T15:22:07.712Z,26.57
2023-04-03T15:24:36.096Z,26.06
2023-04-03T15:27:04.784Z,26.39
2023-04-03T15:29:33.366Z,25.77
2023-04-03T15:32:02.094Z,26.27
2023-04-03T15:34:32.363Z,25.83
2023-04-03T15:37:01.117Z,26.26
2023-04-03T15:39:31.416Z,26.36
2023-04-03T15:42:07.461Z,26.63
2023-04-03T15:44:43.597Z,26.25
2023-04-03T15:47:12.599Z,25.78
2023-04-03T15:49:43.570Z,25.97
2023-04-03T15:52:12.434Z,26.49
2023-04-03T15:54:42.344Z,27.08
2023-04-03T15:57:11.051Z,26.33
2023-04-03T15:59:39.508Z,26.07
2023-04-03T16:02:08.812Z,25.59
2023-04-03T16:04:39.646Z,25.62
2023-04-03T16:07:10.173Z,25.16
2023-04-03T16:09:40.464Z,24.98
2023-04-03T16:12:09.929Z,25.37
2023-04-03T16:14:39.813Z,24.84
2023-04-03T16:17:09.215Z,25.42
2023-04-03T16:19:38.112Z,25.80
2023-04-03T16:22:06.996Z,25.40
2023-04-03T16:24:39.175Z,25.64
2023-04-03T16:27:08.786Z,25.47
2023-04-03T16:29:38.375Z,26.43
2023-04-03T16:32:07.469Z,25.90
2023-04-03T16:34:36.267Z,25.92
2023-04-03T16:37:04.748Z,25.77
2023-04-03T16:39:33.522Z,25.37
2023-04-03T16:42:05.802Z,25.48
2023-04-03T16:44:34.409Z,25.18
2023-04-03T16:47:02.859Z,25.31
2023-04-03T16:49:33.916Z,25.20
2023-04-03T16:52:03.435Z,24.96
2023-04-03T16:54:32.661Z,25.57
2023-04-03T16:57:02.727Z,25.12
2023-04-03T16:59:31.417Z,24.94
2023-04-03T17:02:01.025Z,25.02
2023-04-03T17:04:29.502Z,25.97
2023-04-03T17:06:58.806Z,25.87
2023-04-03T17:09:27.305Z,26.08
2023-04-03T17:11:55.901Z,26.17
2023-04-03T17:14:25.883Z,26.05
2023-04-03T17:16:54.473Z,26.28
2023-04-03T17:19:24.376Z,26.32
2023-04-03T17:21:52.968Z,26.68
2023-04-03T17:24:21.437Z,27.14
2023-04-03T17:26:50.338Z,27.79
2023-04-03T17:29:22.400Z,28.05
2023-04-03T17:31:59.612Z,27.51
2023-04-03T17:34:28.568Z,27.77
2023-04-03T17:36:59.631Z,28.04
2023-04-03T17:39:30.957Z,28.23
2023-04-03T17:42:05.557Z,28.26
2023-04-03T17:44:36.622Z,28.78
2023-04-03T17:47:06.842Z,28.45
2023-04-03T17:49:35.342Z,29.02
2023-04-03T17:52:04.935Z,29.16
2023-04-03T17:54:33.499Z,29.65
2023-04-03T17:57:04.742Z,29.89
2023-04-03T17:59:33.617Z,30.39
2023-04-03T18:02:02.076Z,30.68
2023-04-03T18:04:32.674Z,31.71
2023-04-03T18:07:01.344Z,32.19
2023-04-03T18:09:31.359Z,32.69
2023-04-03T18:11:59.733Z,33.33
2023-04-03T18:14:28.535Z,33.48
2023-04-03T18:16:58.988Z,33.89
2023-04-03T18:19:29.739Z,34.25
2023-04-03T18:22:01.961Z,34.60
2023-04-03T18:24:30.343Z,35.09
2023-04-03T18:27:01.818Z,35.58
2023-04-03T18:29:31.409Z,36.17
2023-04-03T18:32:00.230Z,36.47
2023-04-03T18:34:30.105Z,36.70
2023-04-03T18:37:03.205Z,36.97
2023-04-03T18:39:32.288Z,37.50
2023-04-03T18:42:05.589Z,37.82
2023-04-03T18:44:34.166Z,38.02
2023-04-03T18:47:02.741Z,38.16
2023-04-03T18:49:31.749Z,38.44
2023-04-03T18:52:01.770Z,38.72
2023-04-03T18:54:32.723Z,39.33
2023-04-03T18:57:05.826Z,39.86
2023-04-03T18:59:38.887Z,40.16
2023-04-03T19:02:11.243Z,40.73
2023-04-03T19:04:41.679Z,41.28
2023-04-03T19:07:12.397Z,41.73
2023-04-03T19:09:41.295Z,42.05
2023-04-03T19:12:10.085Z,42.34
2023-04-03T19:14:39.480Z,42.67
2023-04-03T19:17:09.092Z,42.69
2023-04-03T19:19:37.876Z,42.79
2023-04-03T19:22:07.785Z,42.62
2023-04-03T19:24:39.756Z,42.61
2023-04-03T19:27:08.331Z,42.85
2023-04-03T19:29:36.920Z,42.98
2023-04-03T19:32:06.222Z,43.33
2023-04-03T19:34:34.617Z,43.87
2023-04-03T19:37:03.823Z,44.02
2023-04-03T19:39:35.444Z,44.09
2023-04-03T19:42:05.459Z,43.94
2023-04-03T19:44:34.862Z,44.08
2023-04-03T19:47:03.551Z,44.20
2023-04-03T19:49:32.027Z,44.46
2023-04-03T19:52:00.493Z,44.31
2023-04-03T19:54:30.521Z,44.84
2023-04-03T19:56:59.628Z,44.85
2023-04-03T19:59:29.605Z,45.27
2023-04-03T20:01:58.408Z,44.95
2023-04-03T20:04:27.136Z,44.93
2023-04-03T20:06:56.962Z,44.92
2023-04-03T20:09:27.266Z,45.11
2023-04-03T20:11:56.753Z,45.04
2023-04-03T20:14:25.231Z,45.21
2023-04-03T20:16:55.043Z,44.77
2023-04-03T20:19:29.567Z,45.13
2023-04-03T20:22:00.008Z,45.00
2023-04-03T20:24:30.636Z,45.28
2023-04-03T20:26:59.673Z,46.00
2023-04-03T20:29:28.616Z,45.92
2023-04-03T20:32:07.452Z,46.37
2023-04-03T20:34:37.457Z,46.15
2023-04-03T20:37:06.178Z,46.51
2023-04-03T20:39:35.029Z,46.05
2023-04-03T20:42:03.950Z,46.10
2023-04-03T20:44:32.403Z,45.80
2023-04-03T20:47:02.341Z,45.91
2023-04-03T20:49:31.301Z,45.88
2023-04-03T20:51:59.589Z,45.97
2023-04-03T20:54:28.191Z,46.05
2023-04-03T20:56:56.767Z,45.67
2023-04-03T20:59:25.577Z,45.55
2023-04-03T21:01:54.105Z,45.78
2023-04-03T21:04:26.714Z,45.96
2023-04-03T21:07:31.953Z,45.81
2023-04-03T21:10:37.753Z,46.07
2023-04-03T21:13:43.759Z,46.50
2023-04-03T21:16:12.147Z,46.48
2023-04-03T21:18:55.263Z,46.42
2023-04-03T21:21:26.358Z,46.63
2023-04-03T21:23:56.968Z,46.50
2023-04-03T21:26:27.266Z,46.69
2023-04-03T21:28:56.049Z,46.87
2023-04-03T21:31:25.067Z,46.75
2023-04-03T21:33:55.164Z,46.68
2023-04-03T21:36:23.957Z,47.03
2023-04-03T21:38:52.949Z,47.31
2023-04-03T21:41:21.734Z,47.00
2023-04-03T21:43:50.113Z,47.16
2023-04-03T21:46:23.144Z,47.42
2023-04-03T21:48:52.094Z,47.51
2023-04-03T21:51:22.306Z,47.74
2023-04-03T21:53:53.457Z,47.38
2023-04-03T21:56:24.393Z,47.66
2023-04-03T21:58:53.329Z,47.87
2023-04-03T22:01:22.984Z,47.94
2023-04-03T22:03:51.955Z,47.87
2023-04-03T22:06:23.948Z,47.78
2023-04-03T22:08:52.741Z,47.86
2023-04-03T22:11:23.252Z,47.95
2023-04-03T22:13:53.172Z,48.48
2023-04-03T22:16:23.639Z,48.21
2023-04-03T22:18:53.040Z,48.35
2023-04-03T22:21:23.292Z,48.27
2023-04-03T22:23:52.714Z,48.17
2023-04-03T22:26:21.601Z,48.48
2023-04-03T22:28:49.981Z,48.16
2023-04-03T22:31:18.982Z,48.52
2023-04-03T22:33:47.573Z,48.74
2023-04-03T22:36:16.153Z,48.78
2023-04-03T22:38:46.887Z,48.67
2023-04-03T22:41:15.458Z,48.65
2023-04-03T22:43:43.943Z,48.69
2023-04-03T22:46:12.420Z,48.90
2023-04-03T22:48:43.180Z,48.98
2023-04-03T22:51:11.644Z,48.49
2023-04-03T22:53:41.550Z,48.85
2023-04-03T22:56:11.899Z,48.51
2023-04-03T22:58:40.568Z,48.58
2023-04-03T23:01:10.054Z,48.54
2023-04-03T23:03:39.778Z,49.00
2023-04-03T23:06:08.882Z,49.11
2023-04-03T23:08:38.874Z,48.91
2023-04-03T23:11:09.587Z,48.65
2023-04-03T23:13:39.941Z,48.85
2023-04-03T23:16:09.498Z,48.92
2023-04-03T23:18:40.154Z,48.78
2023-04-03T23:21:09.593Z,49.12
2023-04-03T23:23:38.059Z,48.69
2023-04-03T23:26:06.772Z,49.09
2023-04-03T23:28:35.432Z,49.05
2023-04-03T23:31:07.308Z,49.16
2023-04-03T23:33:35.779Z,48.91
2023-04-03T23:36:07.898Z,49.07
2023-04-03T23:38:36.515Z,49.05
2023-04-03T23:41:05.008Z,48.94
2023-04-03T23:43:33.483Z,49.28
2023-04-03T23:46:02.182Z,49.08
2023-04-03T23:48:32.289Z,49.14
2023-04-03T23:51:01.390Z,49.29
2023-04-03T23:53:30.484Z,49.38
2023-04-03T23:56:00.194Z,49.18
2023-04-03T23:58:29.499Z,49.37
